sensor_id;sensor_type;location;lat;lon;timestamp;P1;durP1;ratioP1;P2;durP2;ratioP2
65289;SDS011;51893;59.754;10.110;2023-02-08T00:01:24;30.20;;;13.10;;
65289;SDS011;51893;59.754;10.110;2023-02-08T00:03:52;31.90;;;13.20;;
65289;SDS011;51893;59.754;10.110;2023-02-08T00:06:22;29.00;;;12.90;;
65289;SDS011;51893;59.754;10.110;2023-02-08T00:08:50;32.00;;;13.40;;
65289;SDS011;51893;59.754;10.110;2023-02-08T00:11:18;12.80;;;5.90;;
65289;SDS011;51893;59.754;10.110;2023-02-08T00:13:46;35.80;;;13.00;;
65289;SDS011;51893;59.754;10.110;2023-02-08T00:16:14;17.20;;;7.80;;
65289;SDS011;51893;59.754;10.110;2023-02-08T00:18:42;31.30;;;12.00;;
65289;SDS011;51893;59.754;10.110;2023-02-08T00:21:13;28.20;;;12.90;;
65289;SDS011;51893;59.754;10.110;2023-02-08T00:23:44;29.70;;;12.10;;
65289;SDS011;51893;59.754;10.110;2023-02-08T00:26:15;23.20;;;11.30;;
65289;SDS011;51893;59.754;10.110;2023-02-08T00:28:44;34.40;;;13.70;;
65289;SDS011;51893;59.754;10.110;2023-02-08T00:31:12;36.30;;;14.20;;
65289;SDS011;51893;59.754;10.110;2023-02-08T00:33:40;32.90;;;13.60;;
65289;SDS011;51893;59.754;10.110;2023-02-08T00:36:09;34.40;;;13.30;;
65289;SDS011;51893;59.754;10.110;2023-02-08T00:38:40;31.50;;;13.40;;
65289;SDS011;51893;59.754;10.110;2023-02-08T00:41:09;31.30;;;13.60;;
65289;SDS011;51893;59.754;10.110;2023-02-08T00:43:37;34.30;;;12.30;;
65289;SDS011;51893;59.754;10.110;2023-02-08T00:46:06;26.40;;;11.40;;
65289;SDS011;51893;59.754;10.110;2023-02-08T00:48:36;31.30;;;13.30;;
65289;SDS011;51893;59.754;10.110;2023-02-08T00:51:09;35.80;;;14.00;;
65289;SDS011;51893;59.754;10.110;2023-02-08T00:53:44;32.40;;;13.20;;
65289;SDS011;51893;59.754;10.110;2023-02-08T00:56:13;16.30;;;7.20;;
65289;SDS011;51893;59.754;10.110;2023-02-08T00:58:43;23.40;;;9.20;;
65289;SDS011;51893;59.754;10.110;2023-02-08T01:01:12;25.00;;;11.90;;
65289;SDS011;51893;59.754;10.110;2023-02-08T01:03:42;23.50;;;8.90;;
65289;SDS011;51893;59.754;10.110;2023-02-08T01:06:14;19.40;;;8.10;;
65289;SDS011;51893;59.754;10.110;2023-02-08T01:08:44;24.40;;;10.90;;
65289;SDS011;51893;59.754;10.110;2023-02-08T01:11:15;19.70;;;9.70;;
65289;SDS011;51893;59.754;10.110;2023-02-08T01:13:48;22.90;;;10.40;;
65289;SDS011;51893;59.754;10.110;2023-02-08T01:16:19;21.40;;;10.00;;
65289;SDS011;51893;59.754;10.110;2023-02-08T01:18:54;16.20;;;8.30;;
65289;SDS011;51893;59.754;10.110;2023-02-08T01:21:28;24.30;;;9.90;;
65289;SDS011;51893;59.754;10.110;2023-02-08T01:24:00;13.10;;;5.40;;
65289;SDS011;51893;59.754;10.110;2023-02-08T01:26:29;19.90;;;9.10;;
65289;SDS011;51893;59.754;10.110;2023-02-08T01:28:58;16.60;;;7.50;;
65289;SDS011;51893;59.754;10.110;2023-02-08T01:31:30;17.90;;;8.50;;
65289;SDS011;51893;59.754;10.110;2023-02-08T01:34:02;18.50;;;9.30;;
65289;SDS011;51893;59.754;10.110;2023-02-08T01:36:33;19.50;;;9.80;;
65289;SDS011;51893;59.754;10.110;2023-02-08T01:39:02;14.60;;;8.20;;
65289;SDS011;51893;59.754;10.110;2023-02-08T01:41:36;18.50;;;9.30;;
65289;SDS011;51893;59.754;10.110;2023-02-08T01:46:42;6.60;;;4.30;;
65289;SDS011;51893;59.754;10.110;2023-02-08T01:49:19;10.60;;;5.90;;
65289;SDS011;51893;59.754;10.110;2023-02-08T01:52:01;16.90;;;8.40;;
65289;SDS011;51893;59.754;10.110;2023-02-08T01:54:35;14.90;;;8.50;;
65289;SDS011;51893;59.754;10.110;2023-02-08T01:57:09;14.20;;;7.80;;
65289;SDS011;51893;59.754;10.110;2023-02-08T01:59:45;15.40;;;7.40;;
65289;SDS011;51893;59.754;10.110;2023-02-08T02:02:20;11.00;;;5.80;;
65289;SDS011;51893;59.754;10.110;2023-02-08T02:04:51;14.50;;;8.20;;
65289;SDS011;51893;59.754;10.110;2023-02-08T02:07:20;11.90;;;7.10;;
65289;SDS011;51893;59.754;10.110;2023-02-08T02:09:59;11.10;;;5.00;;
65289;SDS011;51893;59.754;10.110;2023-02-08T02:12:32;18.90;;;7.80;;
65289;SDS011;51893;59.754;10.110;2023-02-08T02:15:03;17.50;;;8.60;;
65289;SDS011;51893;59.754;10.110;2023-02-08T02:17:32;16.20;;;8.40;;
65289;SDS011;51893;59.754;10.110;2023-02-08T02:44:39;16.20;;;8.40;;
65289;SDS011;51893;59.754;10.110;2023-02-08T02:47:34;18.10;;;8.70;;
65289;SDS011;51893;59.754;10.110;2023-02-08T02:53:05;15.00;;;8.10;;
65289;SDS011;51893;59.754;10.110;2023-02-08T02:55:41;14.90;;;7.40;;
65289;SDS011;51893;59.754;10.110;2023-02-08T02:58:17;12.30;;;5.70;;
65289;SDS011;51893;59.754;10.110;2023-02-08T03:00:55;17.70;;;8.40;;
65289;SDS011;51893;59.754;10.110;2023-02-08T03:03:26;24.10;;;9.60;;
65289;SDS011;51893;59.754;10.110;2023-02-08T03:06:00;11.30;;;5.70;;
65289;SDS011;51893;59.754;10.110;2023-02-08T03:14:32;25.90;;;11.20;;
65289;SDS011;51893;59.754;10.110;2023-02-08T03:20:43;23.10;;;9.50;;
65289;SDS011;51893;59.754;10.110;2023-02-08T03:23:40;20.50;;;10.60;;
65289;SDS011;51893;59.754;10.110;2023-02-08T03:26:19;21.00;;;9.40;;
65289;SDS011;51893;59.754;10.110;2023-02-08T03:35:52;15.50;;;7.60;;
65289;SDS011;51893;59.754;10.110;2023-02-08T03:38:30;9.00;;;4.10;;
65289;SDS011;51893;59.754;10.110;2023-02-08T03:41:06;14.80;;;6.30;;
65289;SDS011;51893;59.754;10.110;2023-02-08T03:43:49;20.10;;;8.60;;
65289;SDS011;51893;59.754;10.110;2023-02-08T03:46:31;15.30;;;6.50;;
65289;SDS011;51893;59.754;10.110;2023-02-08T03:49:30;22.00;;;9.30;;
65289;SDS011;51893;59.754;10.110;2023-02-08T03:52:08;22.10;;;8.80;;
65289;SDS011;51893;59.754;10.110;2023-02-08T03:55:04;11.90;;;6.50;;
65289;SDS011;51893;59.754;10.110;2023-02-08T03:57:52;10.10;;;5.00;;
65289;SDS011;51893;59.754;10.110;2023-02-08T04:00:29;16.70;;;6.80;;
65289;SDS011;51893;59.754;10.110;2023-02-08T04:03:07;23.50;;;8.60;;
65289;SDS011;51893;59.754;10.110;2023-02-08T04:05:46;14.40;;;6.30;;
65289;SDS011;51893;59.754;10.110;2023-02-08T04:08:15;23.00;;;10.50;;
65289;SDS011;51893;59.754;10.110;2023-02-08T04:10:44;24.00;;;9.40;;
65289;SDS011;51893;59.754;10.110;2023-02-08T04:13:13;22.30;;;9.40;;
65289;SDS011;51893;59.754;10.110;2023-02-08T04:15:42;19.50;;;9.20;;
65289;SDS011;51893;59.754;10.110;2023-02-08T04:18:12;23.80;;;10.10;;
65289;SDS011;51893;59.754;10.110;2023-02-08T04:20:41;20.50;;;10.20;;
65289;SDS011;51893;59.754;10.110;2023-02-08T04:23:09;24.60;;;10.60;;
65289;SDS011;51893;59.754;10.110;2023-02-08T04:25:36;27.40;;;10.30;;
65289;SDS011;51893;59.754;10.110;2023-02-08T04:28:04;26.70;;;10.20;;
65289;SDS011;51893;59.754;10.110;2023-02-08T04:30:32;28.10;;;10.60;;
65289;SDS011;51893;59.754;10.110;2023-02-08T04:33:01;24.70;;;10.70;;
65289;SDS011;51893;59.754;10.110;2023-02-08T04:35:30;34.90;;;15.30;;
65289;SDS011;51893;59.754;10.110;2023-02-08T04:37:58;28.10;;;12.30;;
65289;SDS011;51893;59.754;10.110;2023-02-08T04:40:26;23.20;;;10.80;;
65289;SDS011;51893;59.754;10.110;2023-02-08T04:42:54;26.10;;;11.40;;
65289;SDS011;51893;59.754;10.110;2023-02-08T04:45:23;24.00;;;11.30;;
65289;SDS011;51893;59.754;10.110;2023-02-08T04:47:52;22.90;;;9.90;;
65289;SDS011;51893;59.754;10.110;2023-02-08T04:50:21;21.60;;;9.70;;
65289;SDS011;51893;59.754;10.110;2023-02-08T04:52:50;22.00;;;9.00;;
65289;SDS011;51893;59.754;10.110;2023-02-08T04:55:18;22.90;;;9.90;;
65289;SDS011;51893;59.754;10.110;2023-02-08T04:57:48;29.20;;;10.70;;
65289;SDS011;51893;59.754;10.110;2023-02-08T05:00:16;26.70;;;10.90;;
65289;SDS011;51893;59.754;10.110;2023-02-08T05:02:46;25.10;;;11.00;;
65289;SDS011;51893;59.754;10.110;2023-02-08T05:05:15;26.70;;;9.90;;
65289;SDS011;51893;59.754;10.110;2023-02-08T05:07:44;22.30;;;10.00;;
65289;SDS011;51893;59.754;10.110;2023-02-08T05:10:12;29.50;;;10.40;;
65289;SDS011;51893;59.754;10.110;2023-02-08T05:12:41;22.90;;;9.30;;
65289;SDS011;51893;59.754;10.110;2023-02-08T05:15:11;23.20;;;8.90;;
65289;SDS011;51893;59.754;10.110;2023-02-08T05:17:40;25.30;;;9.40;;
65289;SDS011;51893;59.754;10.110;2023-02-08T05:20:09;20.70;;;9.80;;
65289;SDS011;51893;59.754;10.110;2023-02-08T05:22:39;17.70;;;7.00;;
65289;SDS011;51893;59.754;10.110;2023-02-08T05:25:07;22.60;;;9.20;;
65289;SDS011;51893;59.754;10.110;2023-02-08T05:27:37;15.20;;;7.70;;
65289;SDS011;51893;59.754;10.110;2023-02-08T05:30:06;20.30;;;7.40;;
65289;SDS011;51893;59.754;10.110;2023-02-08T05:32:34;19.30;;;7.10;;
65289;SDS011;51893;59.754;10.110;2023-02-08T05:35:04;15.30;;;7.70;;
65289;SDS011;51893;59.754;10.110;2023-02-08T05:37:35;12.90;;;6.40;;
65289;SDS011;51893;59.754;10.110;2023-02-08T05:40:03;16.10;;;7.50;;
65289;SDS011;51893;59.754;10.110;2023-02-08T05:42:32;17.00;;;7.70;;
65289;SDS011;51893;59.754;10.110;2023-02-08T05:45:00;15.90;;;7.70;;
65289;SDS011;51893;59.754;10.110;2023-02-08T05:47:28;15.30;;;7.60;;
65289;SDS011;51893;59.754;10.110;2023-02-08T05:49:56;13.30;;;6.50;;
65289;SDS011;51893;59.754;10.110;2023-02-08T05:52:24;15.40;;;7.30;;
65289;SDS011;51893;59.754;10.110;2023-02-08T05:54:52;11.70;;;5.80;;
65289;SDS011;51893;59.754;10.110;2023-02-08T05:57:21;15.40;;;7.00;;
65289;SDS011;51893;59.754;10.110;2023-02-08T05:59:50;10.90;;;5.40;;
65289;SDS011;51893;59.754;10.110;2023-02-08T06:02:18;13.30;;;6.40;;
65289;SDS011;51893;59.754;10.110;2023-02-08T06:04:46;13.00;;;6.00;;
65289;SDS011;51893;59.754;10.110;2023-02-08T06:07:14;12.50;;;5.50;;
65289;SDS011;51893;59.754;10.110;2023-02-08T06:09:42;9.90;;;5.10;;
65289;SDS011;51893;59.754;10.110;2023-02-08T06:12:10;10.70;;;5.50;;
65289;SDS011;51893;59.754;10.110;2023-02-08T06:14:38;10.40;;;6.10;;
65289;SDS011;51893;59.754;10.110;2023-02-08T06:17:06;10.60;;;4.60;;
65289;SDS011;51893;59.754;10.110;2023-02-08T06:19:34;11.60;;;5.70;;
65289;SDS011;51893;59.754;10.110;2023-02-08T06:22:02;11.10;;;5.30;;
65289;SDS011;51893;59.754;10.110;2023-02-08T06:24:30;8.60;;;4.70;;
65289;SDS011;51893;59.754;10.110;2023-02-08T06:26:58;20.60;;;7.40;;
65289;SDS011;51893;59.754;10.110;2023-02-08T06:29:26;16.60;;;7.50;;
65289;SDS011;51893;59.754;10.110;2023-02-08T06:31:54;15.90;;;6.40;;
65289;SDS011;51893;59.754;10.110;2023-02-08T06:34:22;20.70;;;7.20;;
65289;SDS011;51893;59.754;10.110;2023-02-08T06:36:50;13.90;;;7.10;;
65289;SDS011;51893;59.754;10.110;2023-02-08T06:39:18;15.20;;;6.40;;
65289;SDS011;51893;59.754;10.110;2023-02-08T06:41:46;11.40;;;5.70;;
65289;SDS011;51893;59.754;10.110;2023-02-08T06:44:14;14.30;;;6.70;;
65289;SDS011;51893;59.754;10.110;2023-02-08T06:46:42;15.40;;;6.50;;
65289;SDS011;51893;59.754;10.110;2023-02-08T06:49:10;15.80;;;7.10;;
65289;SDS011;51893;59.754;10.110;2023-02-08T06:51:39;12.70;;;5.80;;
65289;SDS011;51893;59.754;10.110;2023-02-08T06:54:07;13.40;;;6.30;;
65289;SDS011;51893;59.754;10.110;2023-02-08T06:56:36;13.50;;;5.90;;
65289;SDS011;51893;59.754;10.110;2023-02-08T06:59:04;19.10;;;7.80;;
65289;SDS011;51893;59.754;10.110;2023-02-08T07:01:32;19.20;;;7.40;;
65289;SDS011;51893;59.754;10.110;2023-02-08T07:04:00;18.90;;;7.60;;
65289;SDS011;51893;59.754;10.110;2023-02-08T07:06:28;13.80;;;6.80;;
65289;SDS011;51893;59.754;10.110;2023-02-08T07:08:56;10.80;;;5.40;;
65289;SDS011;51893;59.754;10.110;2023-02-08T07:11:24;11.70;;;5.50;;
65289;SDS011;51893;59.754;10.110;2023-02-08T07:13:52;13.50;;;6.20;;
65289;SDS011;51893;59.754;10.110;2023-02-08T07:16:22;13.30;;;6.30;;
65289;SDS011;51893;59.754;10.110;2023-02-08T07:18:51;7.30;;;4.50;;
65289;SDS011;51893;59.754;10.110;2023-02-08T07:21:19;7.10;;;3.90;;
65289;SDS011;51893;59.754;10.110;2023-02-08T07:23:48;10.20;;;4.90;;
65289;SDS011;51893;59.754;10.110;2023-02-08T07:26:16;11.80;;;5.90;;
65289;SDS011;51893;59.754;10.110;2023-02-08T07:28:44;10.50;;;4.50;;
65289;SDS011;51893;59.754;10.110;2023-02-08T07:31:15;11.60;;;5.00;;
65289;SDS011;51893;59.754;10.110;2023-02-08T07:33:44;16.40;;;6.20;;
65289;SDS011;51893;59.754;10.110;2023-02-08T07:36:12;15.30;;;6.30;;
65289;SDS011;51893;59.754;10.110;2023-02-08T07:38:40;15.50;;;6.50;;
65289;SDS011;51893;59.754;10.110;2023-02-08T07:41:11;13.40;;;6.70;;
65289;SDS011;51893;59.754;10.110;2023-02-08T07:43:41;15.20;;;6.90;;
65289;SDS011;51893;59.754;10.110;2023-02-08T07:46:13;13.40;;;6.10;;
65289;SDS011;51893;59.754;10.110;2023-02-08T07:48:43;14.20;;;6.40;;
65289;SDS011;51893;59.754;10.110;2023-02-08T07:51:12;13.80;;;6.20;;
65289;SDS011;51893;59.754;10.110;2023-02-08T07:53:40;11.20;;;5.60;;
65289;SDS011;51893;59.754;10.110;2023-02-08T07:56:10;10.40;;;5.60;;
65289;SDS011;51893;59.754;10.110;2023-02-08T07:58:39;15.20;;;6.10;;
65289;SDS011;51893;59.754;10.110;2023-02-08T08:01:09;13.20;;;7.00;;
65289;SDS011;51893;59.754;10.110;2023-02-08T08:03:51;14.60;;;5.50;;
65289;SDS011;51893;59.754;10.110;2023-02-08T08:06:27;17.20;;;6.80;;
65289;SDS011;51893;59.754;10.110;2023-02-08T08:09:00;15.00;;;6.30;;
65289;SDS011;51893;59.754;10.110;2023-02-08T08:11:31;14.70;;;6.30;;
65289;SDS011;51893;59.754;10.110;2023-02-08T08:13:59;10.20;;;4.50;;
65289;SDS011;51893;59.754;10.110;2023-02-08T08:16:27;7.50;;;4.00;;
65289;SDS011;51893;59.754;10.110;2023-02-08T08:18:57;9.90;;;4.80;;
65289;SDS011;51893;59.754;10.110;2023-02-08T08:21:27;13.60;;;6.30;;
65289;SDS011;51893;59.754;10.110;2023-02-08T08:23:54;13.50;;;6.10;;
65289;SDS011;51893;59.754;10.110;2023-02-08T08:26:22;17.60;;;6.40;;
65289;SDS011;51893;59.754;10.110;2023-02-08T08:28:51;14.00;;;5.90;;
65289;SDS011;51893;59.754;10.110;2023-02-08T08:31:20;9.20;;;5.00;;
65289;SDS011;51893;59.754;10.110;2023-02-08T08:33:50;11.30;;;5.30;;
65289;SDS011;51893;59.754;10.110;2023-02-08T08:36:18;11.40;;;5.80;;
65289;SDS011;51893;59.754;10.110;2023-02-08T08:38:46;18.00;;;6.50;;
65289;SDS011;51893;59.754;10.110;2023-02-08T08:41:16;9.70;;;5.10;;
65289;SDS011;51893;59.754;10.110;2023-02-08T08:43:47;12.60;;;6.00;;
65289;SDS011;51893;59.754;10.110;2023-02-08T08:46:17;8.20;;;5.20;;
65289;SDS011;51893;59.754;10.110;2023-02-08T08:48:45;8.40;;;4.40;;
65289;SDS011;51893;59.754;10.110;2023-02-08T08:51:13;12.40;;;6.50;;
65289;SDS011;51893;59.754;10.110;2023-02-08T08:53:42;12.00;;;5.20;;
65289;SDS011;51893;59.754;10.110;2023-02-08T08:56:10;7.70;;;3.80;;
65289;SDS011;51893;59.754;10.110;2023-02-08T08:58:38;9.40;;;4.80;;
65289;SDS011;51893;59.754;10.110;2023-02-08T09:01:07;15.70;;;6.80;;
65289;SDS011;51893;59.754;10.110;2023-02-08T09:03:35;14.10;;;6.00;;
65289;SDS011;51893;59.754;10.110;2023-02-08T09:06:04;13.70;;;5.90;;
65289;SDS011;51893;59.754;10.110;2023-02-08T09:08:32;16.20;;;6.30;;
65289;SDS011;51893;59.754;10.110;2023-02-08T09:11:08;12.60;;;6.20;;
65289;SDS011;51893;59.754;10.110;2023-02-08T09:13:41;13.70;;;6.20;;
65289;SDS011;51893;59.754;10.110;2023-02-08T09:16:16;4.80;;;2.70;;
65289;SDS011;51893;59.754;10.110;2023-02-08T09:18:44;15.10;;;6.90;;
65289;SDS011;51893;59.754;10.110;2023-02-08T09:21:21;12.90;;;6.60;;
65289;SDS011;51893;59.754;10.110;2023-02-08T09:23:53;12.80;;;6.00;;
65289;SDS011;51893;59.754;10.110;2023-02-08T09:26:23;14.20;;;6.70;;
65289;SDS011;51893;59.754;10.110;2023-02-08T09:28:53;14.20;;;5.90;;
65289;SDS011;51893;59.754;10.110;2023-02-08T09:31:26;13.40;;;6.30;;
65289;SDS011;51893;59.754;10.110;2023-02-08T09:34:00;16.80;;;7.80;;
65289;SDS011;51893;59.754;10.110;2023-02-08T09:36:31;16.40;;;6.60;;
65289;SDS011;51893;59.754;10.110;2023-02-08T09:39:12;14.30;;;5.60;;
65289;SDS011;51893;59.754;10.110;2023-02-08T09:44:51;13.90;;;6.20;;
65289;SDS011;51893;59.754;10.110;2023-02-08T09:47:28;18.70;;;7.00;;
65289;SDS011;51893;59.754;10.110;2023-02-08T09:50:24;13.60;;;6.10;;
65289;SDS011;51893;59.754;10.110;2023-02-08T09:53:17;16.50;;;6.40;;
65289;SDS011;51893;59.754;10.110;2023-02-08T09:55:54;15.50;;;7.50;;
65289;SDS011;51893;59.754;10.110;2023-02-08T10:01:05;18.20;;;7.00;;
65289;SDS011;51893;59.754;10.110;2023-02-08T10:03:39;16.30;;;6.30;;
65289;SDS011;51893;59.754;10.110;2023-02-08T10:08:47;14.20;;;6.80;;
65289;SDS011;51893;59.754;10.110;2023-02-08T10:11:47;16.80;;;7.10;;
65289;SDS011;51893;59.754;10.110;2023-02-08T10:17:32;17.60;;;7.10;;
65289;SDS011;51893;59.754;10.110;2023-02-08T10:20:23;14.20;;;7.30;;
65289;SDS011;51893;59.754;10.110;2023-02-08T10:23:24;18.40;;;8.10;;
65289;SDS011;51893;59.754;10.110;2023-02-08T10:26:13;16.60;;;7.00;;
65289;SDS011;51893;59.754;10.110;2023-02-08T10:35:29;18.10;;;7.20;;
65289;SDS011;51893;59.754;10.110;2023-02-08T10:40:56;13.00;;;5.00;;
65289;SDS011;51893;59.754;10.110;2023-02-08T10:46:15;23.60;;;8.40;;
65289;SDS011;51893;59.754;10.110;2023-02-08T10:51:56;17.90;;;8.30;;
65289;SDS011;51893;59.754;10.110;2023-02-08T10:54:24;25.50;;;8.40;;
65289;SDS011;51893;59.754;10.110;2023-02-08T10:57:15;16.60;;;7.60;;
65289;SDS011;51893;59.754;10.110;2023-02-08T11:00:00;21.40;;;9.50;;
65289;SDS011;51893;59.754;10.110;2023-02-08T11:02:33;22.50;;;10.70;;
65289;SDS011;51893;59.754;10.110;2023-02-08T11:05:11;24.10;;;9.80;;
65289;SDS011;51893;59.754;10.110;2023-02-08T11:07:42;17.60;;;7.70;;
65289;SDS011;51893;59.754;10.110;2023-02-08T11:13:02;18.10;;;7.80;;
65289;SDS011;51893;59.754;10.110;2023-02-08T11:15:57;24.10;;;10.00;;
65289;SDS011;51893;59.754;10.110;2023-02-08T11:18:33;28.30;;;10.70;;
65289;SDS011;51893;59.754;10.110;2023-02-08T11:21:07;15.60;;;6.70;;
65289;SDS011;51893;59.754;10.110;2023-02-08T11:23:50;24.70;;;10.00;;
65289;SDS011;51893;59.754;10.110;2023-02-08T11:34:30;21.00;;;9.00;;
65289;SDS011;51893;59.754;10.110;2023-02-08T11:37:22;23.10;;;7.10;;
65289;SDS011;51893;59.754;10.110;2023-02-08T11:39:57;7.60;;;4.50;;
65289;SDS011;51893;59.754;10.110;2023-02-08T11:42:38;26.40;;;10.40;;
65289;SDS011;51893;59.754;10.110;2023-02-08T11:45:21;24.00;;;9.70;;
65289;SDS011;51893;59.754;10.110;2023-02-08T11:47:54;17.80;;;8.10;;
65289;SDS011;51893;59.754;10.110;2023-02-08T11:50:35;22.40;;;9.50;;
65289;SDS011;51893;59.754;10.110;2023-02-08T11:53:16;23.10;;;10.30;;
65289;SDS011;51893;59.754;10.110;2023-02-08T11:56:19;22.30;;;8.80;;
65289;SDS011;51893;59.754;10.110;2023-02-08T12:01:35;23.50;;;11.20;;
65289;SDS011;51893;59.754;10.110;2023-02-08T12:04:07;16.50;;;7.30;;
65289;SDS011;51893;59.754;10.110;2023-02-08T12:07:05;26.10;;;10.30;;
65289;SDS011;51893;59.754;10.110;2023-02-08T12:10:03;22.10;;;9.10;;
65289;SDS011;51893;59.754;10.110;2023-02-08T12:13:14;25.00;;;10.30;;
65289;SDS011;51893;59.754;10.110;2023-02-08T12:19:24;24.00;;;9.40;;
65289;SDS011;51893;59.754;10.110;2023-02-08T12:25:05;13.10;;;6.00;;
65289;SDS011;51893;59.754;10.110;2023-02-08T12:28:09;24.70;;;11.10;;
65289;SDS011;51893;59.754;10.110;2023-02-08T12:31:11;28.70;;;11.30;;
65289;SDS011;51893;59.754;10.110;2023-02-08T12:40:21;29.20;;;13.30;;
65289;SDS011;51893;59.754;10.110;2023-02-08T12:46:43;26.20;;;10.90;;
65289;SDS011;51893;59.754;10.110;2023-02-08T12:52:41;20.10;;;8.10;;
65289;SDS011;51893;59.754;10.110;2023-02-08T12:55:35;22.30;;;9.50;;
65289;SDS011;51893;59.754;10.110;2023-02-08T13:04:14;33.30;;;14.80;;
65289;SDS011;51893;59.754;10.110;2023-02-08T13:06:55;18.90;;;10.00;;
65289;SDS011;51893;59.754;10.110;2023-02-08T13:09:39;19.00;;;8.30;;
65289;SDS011;51893;59.754;10.110;2023-02-08T13:12:17;22.60;;;10.40;;
65289;SDS011;51893;59.754;10.110;2023-02-08T13:18:24;21.40;;;9.90;;
65289;SDS011;51893;59.754;10.110;2023-02-08T13:21:19;21.10;;;9.80;;
65289;SDS011;51893;59.754;10.110;2023-02-08T13:23:51;19.00;;;8.90;;
65289;SDS011;51893;59.754;10.110;2023-02-08T13:26:29;27.90;;;11.50;;
65289;SDS011;51893;59.754;10.110;2023-02-08T13:29:03;23.90;;;10.90;;
65289;SDS011;51893;59.754;10.110;2023-02-08T13:31:40;25.60;;;11.50;;
65289;SDS011;51893;59.754;10.110;2023-02-08T13:37:22;21.80;;;10.10;;
65289;SDS011;51893;59.754;10.110;2023-02-08T13:40:11;21.00;;;11.40;;
65289;SDS011;51893;59.754;10.110;2023-02-08T13:45:37;28.50;;;13.90;;
65289;SDS011;51893;59.754;10.110;2023-02-08T13:48:15;20.40;;;9.20;;
65289;SDS011;51893;59.754;10.110;2023-02-08T13:50:47;38.20;;;15.90;;
65289;SDS011;51893;59.754;10.110;2023-02-08T13:56:11;34.90;;;12.40;;
65289;SDS011;51893;59.754;10.110;2023-02-08T14:01:31;32.90;;;12.40;;
65289;SDS011;51893;59.754;10.110;2023-02-08T14:06:50;25.40;;;12.30;;
65289;SDS011;51893;59.754;10.110;2023-02-08T14:09:30;11.90;;;6.00;;
65289;SDS011;51893;59.754;10.110;2023-02-08T14:17:53;25.30;;;11.60;;
65289;SDS011;51893;59.754;10.110;2023-02-08T14:20:31;24.00;;;11.70;;
65289;SDS011;51893;59.754;10.110;2023-02-08T14:23:06;20.80;;;9.60;;
65289;SDS011;51893;59.754;10.110;2023-02-08T14:25:50;28.20;;;12.40;;
65289;SDS011;51893;59.754;10.110;2023-02-08T14:28:37;27.20;;;12.00;;
65289;SDS011;51893;59.754;10.110;2023-02-08T14:31:11;28.30;;;12.50;;
65289;SDS011;51893;59.754;10.110;2023-02-08T14:33:51;29.80;;;14.10;;
65289;SDS011;51893;59.754;10.110;2023-02-08T14:39:24;15.20;;;7.80;;
65289;SDS011;51893;59.754;10.110;2023-02-08T14:42:02;31.70;;;13.40;;
65289;SDS011;51893;59.754;10.110;2023-02-08T14:52:53;23.10;;;11.10;;
65289;SDS011;51893;59.754;10.110;2023-02-08T14:55:49;27.80;;;12.10;;
65289;SDS011;51893;59.754;10.110;2023-02-08T14:58:39;22.40;;;11.50;;
65289;SDS011;51893;59.754;10.110;2023-02-08T15:01:17;21.00;;;10.90;;
65289;SDS011;51893;59.754;10.110;2023-02-08T15:03:50;21.60;;;11.10;;
65289;SDS011;51893;59.754;10.110;2023-02-08T15:10:15;21.40;;;9.50;;
65289;SDS011;51893;59.754;10.110;2023-02-08T15:12:53;14.10;;;8.10;;
65289;SDS011;51893;59.754;10.110;2023-02-08T15:15:32;16.50;;;7.70;;
65289;SDS011;51893;59.754;10.110;2023-02-08T15:18:02;11.50;;;6.20;;
65289;SDS011;51893;59.754;10.110;2023-02-08T15:20:34;11.00;;;5.20;;
65289;SDS011;51893;59.754;10.110;2023-02-08T15:23:17;3.30;;;2.00;;
65289;SDS011;51893;59.754;10.110;2023-02-08T15:26:02;1.20;;;1.00;;
65289;SDS011;51893;59.754;10.110;2023-02-08T15:28:35;1.40;;;1.30;;
65289;SDS011;51893;59.754;10.110;2023-02-08T15:31:17;2.10;;;1.00;;
65289;SDS011;51893;59.754;10.110;2023-02-08T15:33:48;1.30;;;1.00;;
65289;SDS011;51893;59.754;10.110;2023-02-08T15:36:28;0.80;;;0.80;;
65289;SDS011;51893;59.754;10.110;2023-02-08T15:39:02;12.10;;;1.30;;
65289;SDS011;51893;59.754;10.110;2023-02-08T15:41:38;2.90;;;2.20;;
65289;SDS011;51893;59.754;10.110;2023-02-08T15:44:24;1.90;;;1.70;;
65289;SDS011;51893;59.754;10.110;2023-02-08T15:47:02;2.10;;;1.20;;
65289;SDS011;51893;59.754;10.110;2023-02-08T15:49:38;2.30;;;1.10;;
65289;SDS011;51893;59.754;10.110;2023-02-08T15:52:14;1.20;;;1.10;;
65289;SDS011;51893;59.754;10.110;2023-02-08T15:54:45;1.40;;;1.30;;
65289;SDS011;51893;59.754;10.110;2023-02-08T15:57:43;3.00;;;0.90;;
65289;SDS011;51893;59.754;10.110;2023-02-08T16:00:28;3.40;;;1.80;;
65289;SDS011;51893;59.754;10.110;2023-02-08T16:03:13;1.60;;;1.20;;
65289;SDS011;51893;59.754;10.110;2023-02-08T16:06:00;2.10;;;1.20;;
65289;SDS011;51893;59.754;10.110;2023-02-08T16:08:33;1.30;;;1.10;;
65289;SDS011;51893;59.754;10.110;2023-02-08T16:11:13;1.60;;;1.20;;
65289;SDS011;51893;59.754;10.110;2023-02-08T16:13:50;1.40;;;1.30;;
65289;SDS011;51893;59.754;10.110;2023-02-08T16:16:42;1.90;;;1.10;;
65289;SDS011;51893;59.754;10.110;2023-02-08T16:21:56;2.40;;;1.50;;
65289;SDS011;51893;59.754;10.110;2023-02-08T16:24:49;2.60;;;1.50;;
65289;SDS011;51893;59.754;10.110;2023-02-08T16:27:28;4.70;;;1.60;;
65289;SDS011;51893;59.754;10.110;2023-02-08T16:29:58;1.70;;;0.90;;
65289;SDS011;51893;59.754;10.110;2023-02-08T16:32:32;6.00;;;1.70;;
65289;SDS011;51893;59.754;10.110;2023-02-08T16:35:13;3.10;;;1.90;;
65289;SDS011;51893;59.754;10.110;2023-02-08T16:37:57;5.20;;;1.80;;
65289;SDS011;51893;59.754;10.110;2023-02-08T16:43:28;6.20;;;2.00;;
65289;SDS011;51893;59.754;10.110;2023-02-08T16:51:30;3.00;;;1.50;;
65289;SDS011;51893;59.754;10.110;2023-02-08T16:54:02;5.30;;;1.10;;
65289;SDS011;51893;59.754;10.110;2023-02-08T16:56:36;2.00;;;1.20;;
65289;SDS011;51893;59.754;10.110;2023-02-08T16:59:09;3.60;;;1.20;;
65289;SDS011;51893;59.754;10.110;2023-02-08T17:01:38;5.60;;;1.40;;
65289;SDS011;51893;59.754;10.110;2023-02-08T17:04:06;1.00;;;0.90;;
65289;SDS011;51893;59.754;10.110;2023-02-08T17:06:36;1.90;;;1.40;;
65289;SDS011;51893;59.754;10.110;2023-02-08T17:09:06;2.70;;;1.70;;
65289;SDS011;51893;59.754;10.110;2023-02-08T17:11:36;4.50;;;1.70;;
65289;SDS011;51893;59.754;10.110;2023-02-08T17:14:04;1.80;;;1.10;;
65289;SDS011;51893;59.754;10.110;2023-02-08T17:16:34;2.00;;;1.50;;
65289;SDS011;51893;59.754;10.110;2023-02-08T17:19:03;2.20;;;1.30;;
65289;SDS011;51893;59.754;10.110;2023-02-08T17:21:31;2.00;;;1.00;;
65289;SDS011;51893;59.754;10.110;2023-02-08T17:23:59;1.70;;;1.10;;
65289;SDS011;51893;59.754;10.110;2023-02-08T17:26:35;2.00;;;1.30;;
65289;SDS011;51893;59.754;10.110;2023-02-08T17:29:06;1.30;;;1.10;;
65289;SDS011;51893;59.754;10.110;2023-02-08T17:31:34;0.60;;;0.60;;
65289;SDS011;51893;59.754;10.110;2023-02-08T17:34:02;1.60;;;1.10;;
65289;SDS011;51893;59.754;10.110;2023-02-08T17:36:33;1.70;;;1.30;;
65289;SDS011;51893;59.754;10.110;2023-02-08T17:39:04;1.40;;;1.00;;
65289;SDS011;51893;59.754;10.110;2023-02-08T17:41:32;1.10;;;1.00;;
65289;SDS011;51893;59.754;10.110;2023-02-08T17:44:00;3.10;;;1.20;;